Ban Chat, Thailand

11:52 AM +07 on May 28, 2017 (GMT +0700)
Roiet | | Change Station

Elev 449 ft 16.12 °N, 103.77 °E | Updated 52 minutes ago

Overcast
Overcast
82 °F
Feels Like 85 °F
N
9
Wind Variable Wind from East

Today
High -- | Low -- °F
--% Chance of Precip.
Yesterday
High -- | Low -- °F
Precip. -- in
Pressure 29.77 in
Visibility 5.6 miles
Clouds Mostly Cloudy 2200 ft
Heat Index 85 °F
Dew Point 68 °F
Humidity 62%
Rainfall 0.00 in
Snow Depth Not available.
5:32 AM 6:30 PM
Waxing Crescent, 8% visible
METAR VTUV 280400Z 08008KT 9000 BKN022 28/20 Q1008 A2979 INFO E RWY 36
Pressure 29.77 in
Visibility 5.6 miles
Clouds Mostly Cloudy 2200 ft
Heat Index 85 °F
Dew Point 68 °F
Humidity 62%
Rainfall 0.00 in
Snow Depth Not available.
5:32 AM 6:30 PM
Waxing Crescent, 8% visible
METAR VTUV 280400Z 08008KT 9000 BKN022 28/20 Q1008 A2979 INFO E RWY 36

Get Severe Weather Alerts

Thanks for signing up!

Be on the lookout for a verification email in your inbox.

You'll start receiving the daily forecast at 6 AM.

×

10-Day Weather Forecast

No radar image for this location.
×

Almanac

Astronomy

May. 28, 2017 Rise Set
Actual Time
Civil Twilight
Nautical Twilight
Astronomical Twilight
Moon
Length of Visible Light
Length of Day
Tomorrow will be .
, % of the Moon is Illuminated

Today's Extremes

Country Highs Country Lows

Community

WunderPhotos

Category 6

Welcome to Category 6. This is the collective home for Weather Underground's featured writeups by Dr. Jeff Masters (right), Bob Henson (left), Chris Burt, and other regular contributors.

Nearby

Air Quality

  Air Quality AQ Index Pollutant
Not available.

Snow Depth

Station Depth Elevation

Earthquake Activity

City Distance Mag. Time & Date
Minimum magnitude displayed is 2.5.

Coastal Water Temperatures

Place Temperature

Stations

Nearby Weather Stations

Station Location Temp. Windchill Dew Point Humidity Wind Precip. Elev Updated Type